Time;durP1;ratioP1;P1;durP2;ratioP2;P2;SDS_P1;SDS_P2;PMS_P1;PMS_P2;Temp;Humidity;BMP_temperature;BMP_pressure;BME280_temperature;BME280_humidity;BME280_pressure;Samples;Min_cycle;Max_cycle;Signal;HPM_P1;HPM_P2
2022/10/29 00:00:28;;;;;;;23.73;17.02;;;13.00;99.90;;;;;;5115326;28;20030;-74
2022/10/29 00:02:54;;;;;;;26.63;17.52;;;13.00;99.90;;;;;;5116226;28;20036;-74
2022/10/29 00:05:19;;;;;;;21.02;16.15;;;13.00;99.90;;;;;;5115838;28;20031;-81
2022/10/29 00:07:45;;;;;;;22.60;14.95;;;13.00;99.90;;;;;;5115568;28;20066;-74
2022/10/29 00:10:11;;;;;;;21.63;15.45;;;13.00;99.90;;;;;;5115839;28;20023;-74
2022/10/29 00:12:36;;;;;;;22.80;15.65;;;13.00;99.90;;;;;;5115276;28;20373;-74
2022/10/29 00:15:03;;;;;;;19.92;14.23;;;13.00;99.90;;;;;;5115396;28;20042;-73
2022/10/29 00:17:29;;;;;;;20.40;14.90;;;13.00;99.90;;;;;;5115198;28;20034;-74
2022/10/29 00:19:54;;;;;;;24.08;16.10;;;13.00;99.90;;;;;;5115630;28;20028;-73
2022/10/29 00:22:20;;;;;;;19.48;14.20;;;12.90;99.90;;;;;;5115647;28;20456;-73
2022/10/29 00:24:45;;;;;;;20.77;15.13;;;12.90;99.90;;;;;;5114633;28;20107;-74
2022/10/29 00:27:11;;;;;;;22.08;15.02;;;12.90;99.90;;;;;;5115816;28;20035;-74
2022/10/29 00:29:37;;;;;;;19.85;14.15;;;12.90;99.90;;;;;;5114979;28;20016;-73
2022/10/29 00:32:02;;;;;;;22.88;15.85;;;12.90;99.90;;;;;;5115490;28;20053;-74
2022/10/29 00:34:28;;;;;;;20.73;15.45;;;12.90;99.90;;;;;;5115718;28;20480;-73
2022/10/29 00:36:54;;;;;;;21.63;14.07;;;12.90;99.90;;;;;;5115280;28;20039;-73
2022/10/29 00:39:19;;;;;;;20.50;15.00;;;12.90;99.90;;;;;;5115272;28;20030;-74
2022/10/29 00:41:45;;;;;;;21.65;14.90;;;12.90;99.90;;;;;;5114477;28;20435;-74
2022/10/29 00:44:14;;;;;;;20.15;14.07;;;12.90;99.90;;;;;;5114965;28;20028;-73
2022/10/29 00:46:50;;;;;;;20.48;14.18;;;12.90;99.90;;;;;;5114339;28;20384;-73
2022/10/29 00:49:16;;;;;;;21.95;15.13;;;12.90;99.90;;;;;;5115172;28;20121;-73
2022/10/29 00:51:42;;;;;;;18.63;14.38;;;12.90;99.90;;;;;;5114517;28;20081;-73
2022/10/29 00:54:15;;;;;;;22.90;14.52;;;12.90;99.90;;;;;;5115266;28;20115;-73
2022/10/29 00:56:50;;;;;;;19.67;14.38;;;12.90;99.90;;;;;;5114429;28;20104;-73
2022/10/29 00:59:16;;;;;;;22.98;14.77;;;12.90;99.90;;;;;;5115098;28;20016;-73
2022/10/29 01:01:43;;;;;;;20.17;15.35;;;12.90;99.90;;;;;;5114283;28;20119;-73
2022/10/29 01:04:10;;;;;;;22.35;16.13;;;12.90;99.90;;;;;;5115213;28;20110;-73
2022/10/29 01:06:36;;;;;;;20.27;14.23;;;12.80;99.90;;;;;;5113047;28;20028;-73
2022/10/29 01:09:02;;;;;;;22.92;15.63;;;12.90;99.90;;;;;;5115144;28;20068;-73
2022/10/29 01:11:42;;;;;;;22.38;15.18;;;12.90;99.90;;;;;;5114321;28;20438;-73
2022/10/29 01:14:14;;;;;;;20.57;14.53;;;12.90;99.90;;;;;;5114416;28;20038;-73
2022/10/29 01:17:01;;;;;;;21.58;14.38;;;12.90;99.90;;;;;;5113853;28;20031;-73
2022/10/29 01:19:38;;;;;;;19.42;13.68;;;12.90;99.90;;;;;;5114397;28;20028;-79
2022/10/29 01:22:26;;;;;;;19.15;14.52;;;12.90;99.90;;;;;;5114597;28;20059;-73
2022/10/29 01:25:05;;;;;;;22.08;15.02;;;12.80;99.90;;;;;;5113791;28;20059;-73
2022/10/29 01:27:43;;;;;;;20.70;15.32;;;12.80;99.90;;;;;;5113674;28;20028;-74
2022/10/29 01:30:39;;;;;;;23.17;15.88;;;12.80;99.90;;;;;;5114391;28;20062;-73
2022/10/29 01:33:13;;;;;;;20.33;14.10;;;12.80;99.90;;;;;;5105477;28;20444;-74
2022/10/29 01:36:09;;;;;;;21.63;14.32;;;12.90;99.90;;;;;;5113931;28;20088;-74
2022/10/29 01:38:53;;;;;;;22.83;15.25;;;12.80;99.90;;;;;;5113555;28;20024;-74
2022/10/29 01:41:40;;;;;;;23.17;14.82;;;12.80;99.90;;;;;;5113867;28;20479;-74
2022/10/29 01:44:36;;;;;;;22.98;15.30;;;12.80;99.90;;;;;;5114035;28;20031;-74
2022/10/29 01:47:04;;;;;;;19.05;14.07;;;12.80;99.90;;;;;;5113945;28;20092;-75
2022/10/29 01:49:52;;;;;;;23.52;15.07;;;12.80;99.90;;;;;;5113814;28;20034;-80
2022/10/29 01:52:20;;;;;;;19.50;14.60;;;12.80;99.90;;;;;;5113903;28;20028;-74
2022/10/29 01:54:47;;;;;;;24.52;15.00;;;12.80;99.90;;;;;;5113012;28;20383;-74
2022/10/29 01:57:32;;;;;;;21.65;14.15;;;12.80;99.90;;;;;;5113489;28;20031;-74
2022/10/29 02:00:07;;;;;;;21.70;14.82;;;12.80;99.90;;;;;;5113870;28;20026;-74
2022/10/29 02:02:53;;;;;;;22.90;16.55;;;12.80;99.90;;;;;;5113214;28;20031;-73
2022/10/29 02:05:22;;;;;;;24.00;15.77;;;12.80;99.90;;;;;;5113712;28;20062;-73
2022/10/29 02:07:53;;;;;;;22.80;17.00;;;12.80;99.90;;;;;;5112816;28;20023;-74
2022/10/29 02:10:26;;;;;;;24.45;17.67;;;12.80;99.90;;;;;;5113679;28;20024;-73
2022/10/29 02:12:54;;;;;;;26.35;17.17;;;12.80;99.90;;;;;;5113135;28;20111;-73
2022/10/29 02:15:26;;;;;;;25.00;17.40;;;12.80;99.90;;;;;;5113521;28;20035;-73
2022/10/29 02:17:51;;;;;;;29.55;18.25;;;12.80;99.90;;;;;;5112989;28;20020;-74
2022/10/29 02:20:17;;;;;;;23.88;17.15;;;12.80;99.90;;;;;;5112852;28;20051;-74
2022/10/29 02:22:44;;;;;;;33.97;18.08;;;12.80;99.90;;;;;;5112813;28;20020;-73
2022/10/29 02:25:10;;;;;;;26.65;17.77;;;12.80;99.90;;;;;;5113299;28;20033;-73
2022/10/29 02:27:36;;;;;;;25.67;17.30;;;12.80;99.90;;;;;;5112478;28;20375;-74
2022/10/29 02:30:02;;;;;;;27.15;16.63;;;12.80;99.90;;;;;;5113424;28;20028;-73
2022/10/29 02:32:28;;;;;;;27.42;17.83;;;12.80;99.90;;;;;;5113154;28;20024;-73
2022/10/29 02:34:53;;;;;;;21.15;15.32;;;12.80;99.90;;;;;;5111918;28;21010;-74
2022/10/29 02:37:19;;;;;;;22.83;16.33;;;12.80;99.90;;;;;;5112883;28;20019;-73
2022/10/29 02:39:44;;;;;;;24.42;16.08;;;12.80;99.90;;;;;;5112619;28;20031;-74
2022/10/29 02:42:10;;;;;;;24.55;15.73;;;12.80;99.90;;;;;;5113411;28;20449;-73
2022/10/29 02:44:36;;;;;;;24.10;15.85;;;12.80;99.90;;;;;;5112509;28;20111;-74
2022/10/29 02:47:01;;;;;;;27.98;17.48;;;12.80;99.90;;;;;;5112972;28;20465;-74
2022/10/29 02:49:27;;;;;;;25.67;16.38;;;12.80;99.90;;;;;;5112869;28;20055;-74
2022/10/29 02:51:53;;;;;;;26.23;16.58;;;12.80;99.90;;;;;;5112419;28;20063;-73
2022/10/29 02:54:18;;;;;;;23.45;15.52;;;12.80;99.90;;;;;;5113167;28;20032;-73
2022/10/29 02:56:44;;;;;;;27.25;16.75;;;12.80;99.90;;;;;;5112205;28;20028;-73
2022/10/29 02:59:09;;;;;;;25.23;16.52;;;12.80;99.90;;;;;;5112708;28;20387;-73
2022/10/29 03:01:35;;;;;;;33.42;17.83;;;12.80;99.90;;;;;;5112977;28;20461;-80
2022/10/29 03:04:01;;;;;;;30.23;17.67;;;12.80;99.90;;;;;;5112449;28;20024;-73
2022/10/29 03:06:26;;;;;;;32.25;19.27;;;12.80;99.90;;;;;;5112939;28;20464;-74
2022/10/29 03:08:52;;;;;;;30.55;18.67;;;12.80;99.90;;;;;;5112066;28;20034;-73
2022/10/29 03:11:17;;;;;;;28.48;18.92;;;12.80;99.90;;;;;;5112843;28;20026;-73
2022/10/29 03:13:43;;;;;;;34.20;19.52;;;12.70;99.90;;;;;;5112333;28;20403;-73
2022/10/29 03:16:09;;;;;;;30.15;18.20;;;12.80;99.90;;;;;;5112680;28;20380;-73
2022/10/29 03:18:35;;;;;;;29.65;17.33;;;12.80;99.90;;;;;;5112631;28;20020;-73
2022/10/29 03:21:00;;;;;;;29.85;19.30;;;12.80;99.90;;;;;;5112117;28;20024;-74
2022/10/29 03:23:26;;;;;;;26.50;17.38;;;12.80;99.90;;;;;;5112737;28;20031;-74
2022/10/29 03:25:53;;;;;;;24.40;16.67;;;12.70;99.90;;;;;;5112533;28;20024;-74
2022/10/29 03:28:23;;;;;;;24.15;16.52;;;12.80;99.90;;;;;;5112426;28;20061;-73
2022/10/29 03:30:49;;;;;;;23.55;15.32;;;12.70;99.90;;;;;;5112422;28;20028;-74
2022/10/29 03:33:14;;;;;;;24.27;14.88;;;12.70;99.90;;;;;;5113481;28;20444;-73
2022/10/29 03:35:40;;;;;;;25.45;15.45;;;12.70;99.90;;;;;;5116175;28;20051;-74
2022/10/29 03:38:06;;;;;;;23.50;14.80;;;12.80;99.90;;;;;;5116688;28;20367;-73
2022/10/29 03:40:32;;;;;;;21.40;13.82;;;12.80;99.90;;;;;;5116704;28;20102;-72
2022/10/29 03:42:58;;;;;;;24.35;13.95;;;12.80;99.90;;;;;;5115937;28;20034;-73
2022/10/29 03:45:23;;;;;;;25.63;16.45;;;12.80;99.90;;;;;;5116230;28;20031;-72
2022/10/29 03:47:49;;;;;;;22.75;15.75;;;12.80;99.90;;;;;;5115266;28;20028;-73
2022/10/29 03:50:15;;;;;;;27.25;17.08;;;12.80;99.90;;;;;;5116376;28;20019;-72
2022/10/29 03:52:40;;;;;;;26.95;16.88;;;12.70;99.90;;;;;;5116063;28;20102;-73
2022/10/29 03:55:07;;;;;;;26.08;16.60;;;12.80;99.90;;;;;;5116368;28;20539;-73
2022/10/29 03:57:33;;;;;;;29.00;18.00;;;12.80;99.90;;;;;;5116258;28;20023;-73
2022/10/29 03:59:59;;;;;;;28.60;17.98;;;12.70;99.90;;;;;;5115186;28;20529;-74
2022/10/29 04:02:25;;;;;;;27.00;16.83;;;12.70;99.90;;;;;;5114991;28;20016;-74
2022/10/29 04:04:51;;;;;;;26.13;17.98;;;12.70;99.90;;;;;;5115761;28;20024;-74
2022/10/29 04:07:17;;;;;;;29.95;18.98;;;12.70;99.90;;;;;;5117663;27;20098;-73
2022/10/29 04:09:43;;;;;;;30.52;18.30;;;12.70;99.90;;;;;;5115022;28;20020;-75
2022/10/29 04:12:09;;;;;;;32.70;19.40;;;12.70;99.90;;;;;;5115712;28;20081;-74
2022/10/29 04:14:34;;;;;;;27.70;17.52;;;12.70;99.90;;;;;;5115339;28;20027;-74
2022/10/29 04:17:00;;;;;;;35.03;20.83;;;12.70;99.90;;;;;;5114981;28;20016;-74
2022/10/29 04:19:26;;;;;;;35.65;18.98;;;12.70;99.90;;;;;;5115705;28;20059;-74
2022/10/29 04:21:51;;;;;;;31.73;18.92;;;12.70;99.90;;;;;;5115095;28;20024;-74
2022/10/29 04:24:17;;;;;;;28.98;17.52;;;12.70;99.90;;;;;;5115851;28;20035;-72
2022/10/29 04:26:43;;;;;;;27.83;18.73;;;12.70;99.90;;;;;;5114945;28;20098;-80
2022/10/29 04:29:08;;;;;;;30.67;17.00;;;12.70;99.90;;;;;;5115428;28;20035;-73
2022/10/29 04:31:35;;;;;;;28.40;16.40;;;12.70;99.90;;;;;;5115428;28;20042;-73
2022/10/29 04:34:00;;;;;;;29.25;16.55;;;12.70;99.90;;;;;;5114621;28;20047;-74
2022/10/29 04:36:26;;;;;;;28.83;17.40;;;12.70;99.90;;;;;;5115424;28;20059;-73
2022/10/29 04:38:52;;;;;;;26.40;16.17;;;12.70;99.90;;;;;;5115152;28;20055;-73
2022/10/29 04:41:17;;;;;;;25.23;15.55;;;12.70;99.90;;;;;;5114920;28;20110;-73
2022/10/29 04:43:43;;;;;;;24.35;15.40;;;12.70;99.90;;;;;;5114764;28;20030;-79
2022/10/29 04:46:09;;;;;;;22.20;14.57;;;12.70;99.90;;;;;;5114767;28;20023;-73
2022/10/29 04:48:35;;;;;;;22.38;14.02;;;12.70;99.90;;;;;;5115144;28;20103;-73
2022/10/29 04:51:01;;;;;;;24.50;14.75;;;12.70;99.90;;;;;;5114398;28;20111;-72
2022/10/29 04:53:26;;;;;;;23.27;14.52;;;12.70;99.90;;;;;;5115001;28;20031;-73
2022/10/29 04:55:58;;;;;;;23.83;14.88;;;12.70;99.90;;;;;;5114484;28;20111;-73
2022/10/29 04:58:23;;;;;;;;;;;12.70;99.90;;;;;;5115509;28;20031;-74
2022/10/29 05:00:49;;;;;;;22.95;14.48;;;12.70;99.90;;;;;;5114790;28;20241;-74
2022/10/29 05:03:14;;;;;;;20.85;14.00;;;12.70;99.90;;;;;;5115195;28;20040;-73
2022/10/29 05:05:40;;;;;;;21.77;14.13;;;12.70;99.90;;;;;;5115143;28;20030;-73
2022/10/29 05:08:08;;;;;;;27.73;15.45;;;12.70;99.90;;;;;;5114183;28;20031;-74
2022/10/29 05:10:35;;;;;;;25.05;15.02;;;12.70;99.90;;;;;;5114842;28;20028;-73
2022/10/29 05:13:10;;;;;;;24.75;15.10;;;12.70;99.90;;;;;;5114194;28;20027;-74
2022/10/29 05:15:36;;;;;;;23.58;14.65;;;12.70;99.90;;;;;;5114667;28;20490;-73
2022/10/29 05:18:02;;;;;;;24.52;14.68;;;12.70;99.90;;;;;;5114423;28;20058;-73
2022/10/29 05:20:28;;;;;;;22.45;14.30;;;12.70;99.90;;;;;;5114453;27;20108;-74
2022/10/29 05:23:16;;;;;;;22.60;14.25;;;12.70;99.90;;;;;;5114042;28;20035;-73
2022/10/29 05:25:41;;;;;;;23.33;14.02;;;12.70;99.90;;;;;;5114459;28;20475;-73
2022/10/29 05:28:17;;;;;;;21.13;14.02;;;12.70;99.90;;;;;;5113932;28;20112;-73
2022/10/29 05:30:43;;;;;;;21.23;14.52;;;12.70;99.90;;;;;;5114400;28;20115;-73
2022/10/29 05:33:11;;;;;;;26.40;13.98;;;12.70;99.90;;;;;;5113616;28;20736;-74
2022/10/29 05:35:37;;;;;;;24.52;14.73;;;12.70;99.90;;;;;;5113948;28;20035;-73
2022/10/29 05:38:03;;;;;;;21.73;13.80;;;12.70;99.90;;;;;;5113622;28;20028;-73
2022/10/29 05:40:29;;;;;;;24.88;15.27;;;12.70;99.90;;;;;;5114276;27;20392;-72
2022/10/29 05:42:54;;;;;;;23.35;14.82;;;12.70;99.90;;;;;;5113383;28;20039;-73
2022/10/29 05:45:20;;;;;;;22.25;14.52;;;12.70;99.90;;;;;;5114281;28;20036;-73
2022/10/29 05:47:45;;;;;;;25.50;15.88;;;12.70;99.90;;;;;;5114070;28;20024;-73
2022/10/29 05:50:12;;;;;;;27.02;15.88;;;12.70;99.90;;;;;;5113350;28;20097;-73
2022/10/29 05:52:38;;;;;;;27.73;15.15;;;12.70;99.90;;;;;;5113270;28;20545;-73
2022/10/29 05:55:04;;;;;;;31.10;16.80;;;12.70;99.90;;;;;;5112582;28;20391;-73
2022/10/29 05:57:30;;;;;;;25.88;15.10;;;12.70;99.90;;;;;;5113327;28;20491;-74
2022/10/29 05:59:56;;;;;;;35.13;16.92;;;12.70;99.90;;;;;;5113295;28;20043;-74
2022/10/29 06:02:21;;;;;;;32.15;17.40;;;12.70;99.90;;;;;;5113488;28;20034;-73
2022/10/29 06:04:47;;;;;;;26.10;16.30;;;12.70;99.90;;;;;;5113860;28;20031;-73
2022/10/29 06:07:12;;;;;;;29.20;16.08;;;12.70;99.90;;;;;;5113276;28;20032;-73
2022/10/29 06:09:38;;;;;;;32.05;16.92;;;12.70;99.90;;;;;;5113642;28;20053;-73
2022/10/29 06:12:04;;;;;;;24.63;16.33;;;12.70;99.90;;;;;;5112894;28;20107;-73
2022/10/29 06:14:30;;;;;;;25.70;16.10;;;12.70;99.90;;;;;;5113604;28;20063;-73
2022/10/29 06:16:55;;;;;;;25.23;16.80;;;12.70;99.90;;;;;;5113200;28;20070;-73
2022/10/29 06:19:21;;;;;;;27.38;16.15;;;12.60;99.90;;;;;;5113575;28;20439;-73
2022/10/29 06:21:47;;;;;;;27.27;14.75;;;12.70;99.90;;;;;;5113416;28;20024;-74
2022/10/29 06:24:12;;;;;;;25.77;15.68;;;12.70;99.90;;;;;;5112713;28;20023;-73
2022/10/29 06:26:39;;;;;;;27.65;15.15;;;12.70;99.90;;;;;;5113407;28;20024;-74
2022/10/29 06:29:05;;;;;;;28.35;15.63;;;12.70;99.90;;;;;;5112423;28;20452;-73
2022/10/29 06:31:30;;;;;;;26.27;15.05;;;12.70;99.90;;;;;;5112299;28;20165;-74
2022/10/29 06:33:56;;;;;;;24.48;14.85;;;12.70;99.90;;;;;;5111854;28;20051;-74
2022/10/29 06:36:22;;;;;;;27.45;15.95;;;12.70;99.90;;;;;;5111532;28;20023;-74
2022/10/29 06:38:47;;;;;;;28.85;15.57;;;12.70;99.90;;;;;;5112928;28;20031;-74
2022/10/29 06:41:13;;;;;;;28.45;15.27;;;12.70;99.90;;;;;;5112117;28;20027;-74
2022/10/29 06:43:39;;;;;;;31.38;16.02;;;12.70;99.90;;;;;;5111624;28;20422;-74
2022/10/29 06:46:05;;;;;;;24.90;15.00;;;12.70;99.90;;;;;;5111127;28;20028;-74
2022/10/29 06:48:31;;;;;;;31.45;16.58;;;12.70;99.90;;;;;;5112917;28;20069;-73
2022/10/29 06:51:00;;;;;;;26.75;15.70;;;12.80;99.90;;;;;;5111034;28;20031;-75
2022/10/29 06:53:26;;;;;;;27.38;15.32;;;12.80;99.90;;;;;;5112592;28;20535;-73
2022/10/29 06:55:52;;;;;;;29.20;15.35;;;12.80;99.90;;;;;;5112777;28;20415;-74
2022/10/29 06:58:19;;;;;;;25.55;14.95;;;12.80;99.90;;;;;;5112588;28;20031;-75
2022/10/29 07:00:46;;;;;;;28.27;15.65;;;12.80;99.90;;;;;;5113007;28;20039;-74
2022/10/29 07:03:13;;;;;;;29.40;16.30;;;12.90;99.90;;;;;;5112631;28;20027;-74
2022/10/29 07:05:38;;;;;;;26.65;15.07;;;12.90;99.90;;;;;;5112941;28;20082;-75
2022/10/29 07:08:04;;;;;;;28.70;16.35;;;12.90;99.90;;;;;;5115746;28;20031;-73
2022/10/29 07:10:31;;;;;;;23.48;14.57;;;12.90;99.90;;;;;;5118554;27;20024;-73
2022/10/29 07:12:57;;;;;;;30.48;15.90;;;12.90;99.90;;;;;;5137155;27;20031;-74
2022/10/29 07:15:24;;;;;;;30.52;16.10;;;12.90;99.90;;;;;;5137334;27;20157;-73
2022/10/29 07:18:06;;;;;;;27.05;14.57;;;12.90;99.90;;;;;;5137437;27;20083;-72
2022/10/29 07:20:34;;;;;;;22.75;14.30;;;12.90;99.90;;;;;;5136072;27;20023;-76
2022/10/29 07:23:00;;;;;;;27.13;15.40;;;13.00;99.90;;;;;;5136662;27;20019;-74
2022/10/29 07:25:27;;;;;;;24.38;13.48;;;13.00;99.90;;;;;;5136568;27;20030;-74
2022/10/29 07:27:54;;;;;;;24.45;14.27;;;12.90;99.90;;;;;;5137002;27;20475;-74
2022/10/29 07:30:20;;;;;;;28.90;15.32;;;13.00;99.90;;;;;;5137148;27;20034;-74
2022/10/29 07:32:45;;;;;;;28.02;15.00;;;13.00;99.90;;;;;;5137191;27;20051;-76
2022/10/29 07:35:11;;;;;;;26.48;14.80;;;13.00;99.90;;;;;;5136873;27;20057;-73
2022/10/29 07:37:37;;;;;;;26.40;14.65;;;13.00;99.90;;;;;;5137399;27;20459;-73
2022/10/29 07:40:03;;;;;;;25.38;14.45;;;13.00;99.90;;;;;;5136985;27;20027;-73
2022/10/29 07:42:29;;;;;;;26.42;15.50;;;13.00;99.90;;;;;;5137024;27;20031;-73
2022/10/29 07:44:55;;;;;;;30.33;15.43;;;13.00;99.90;;;;;;5136702;27;20024;-73
2022/10/29 07:47:20;;;;;;;23.50;13.90;;;13.00;99.90;;;;;;5136393;27;20382;-73
2022/10/29 07:49:46;;;;;;;24.13;14.50;;;13.10;99.90;;;;;;5136767;27;20027;-74
2022/10/29 07:52:12;;;;;;;21.65;13.93;;;13.10;99.90;;;;;;5136638;27;20027;-74
2022/10/29 07:54:37;;;;;;;21.20;13.10;;;13.10;99.90;;;;;;5136635;27;20475;-74
2022/10/29 07:57:03;;;;;;;19.63;12.95;;;13.10;99.90;;;;;;5136436;27;20038;-73
2022/10/29 07:59:29;;;;;;;21.35;14.05;;;13.10;99.90;;;;;;5115601;28;20048;-74
2022/10/29 08:01:55;;;;;;;20.55;13.00;;;13.10;99.90;;;;;;5116225;28;20027;-73
2022/10/29 08:04:20;;;;;;;16.33;12.20;;;13.10;99.90;;;;;;5115791;28;20380;-74
2022/10/29 08:06:46;;;;;;;15.63;10.95;;;13.10;99.90;;;;;;5116323;28;20480;-73
2022/10/29 08:09:12;;;;;;;14.88;9.82;;;13.10;99.90;;;;;;5115682;28;20359;-74
2022/10/29 08:11:38;;;;;;;13.38;9.50;;;13.10;99.90;;;;;;5115972;28;20023;-73
2022/10/29 08:14:04;;;;;;;14.07;9.68;;;13.10;99.90;;;;;;5114292;28;20072;-74
2022/10/29 08:16:29;;;;;;;12.75;9.05;;;13.10;99.90;;;;;;5115757;28;20362;-74
2022/10/29 08:18:55;;;;;;;13.45;8.95;;;13.10;99.90;;;;;;5115006;28;20035;-73
2022/10/29 08:21:21;;;;;;;12.90;9.80;;;13.10;99.90;;;;;;5115481;28;20032;-74
2022/10/29 08:23:47;;;;;;;14.65;9.70;;;13.00;99.90;;;;;;5115896;28;20059;-73
2022/10/29 08:26:13;;;;;;;11.63;8.90;;;13.10;99.90;;;;;;5115112;28;20027;-73
2022/10/29 08:28:39;;;;;;;14.10;9.60;;;13.10;99.90;;;;;;5115656;28;20460;-74
2022/10/29 08:31:04;;;;;;;12.18;8.77;;;13.10;99.90;;;;;;5115367;28;20024;-73
2022/10/29 08:33:30;;;;;;;11.55;8.60;;;13.10;99.90;;;;;;5114704;28;20122;-73
2022/10/29 08:35:55;;;;;;;13.13;9.05;;;13.10;99.90;;;;;;5115593;28;20110;-73
2022/10/29 08:38:22;;;;;;;10.30;7.45;;;13.10;99.90;;;;;;5115247;28;20039;-73
2022/10/29 08:40:53;;;;;;;11.65;8.50;;;13.10;99.90;;;;;;5115354;28;20460;-73
2022/10/29 08:43:31;;;;;;;12.20;9.25;;;13.00;99.90;;;;;;5115093;28;20094;-74
2022/10/29 08:45:57;;;;;;;12.02;8.65;;;13.00;99.90;;;;;;5115463;28;20031;-74
2022/10/29 08:48:45;;;;;;;12.07;8.63;;;13.00;99.90;;;;;;5115054;28;20529;-74
2022/10/29 08:51:13;;;;;;;11.68;8.27;;;13.00;99.90;;;;;;5115038;28;20448;-74
2022/10/29 08:53:46;;;;;;;10.73;7.88;;;13.00;99.90;;;;;;5115019;28;20031;-73
2022/10/29 08:56:18;;;;;;;13.90;8.57;;;13.00;99.90;;;;;;5114907;28;20106;-72
2022/10/29 08:58:49;;;;;;;10.85;8.20;;;13.00;99.90;;;;;;5115228;28;20038;-73
2022/10/29 09:01:17;;;;;;;12.50;9.05;;;13.00;99.90;;;;;;5114805;28;20452;-74
2022/10/29 09:03:43;;;;;;;11.68;8.38;;;13.00;99.90;;;;;;5115402;28;20036;-73
2022/10/29 09:06:34;;;;;;;12.23;8.25;;;13.00;99.90;;;;;;5114739;28;20031;-74
2022/10/29 09:09:20;;;;;;;13.18;9.18;;;13.00;99.90;;;;;;5113874;28;20016;-74
2022/10/29 09:12:05;;;;;;;13.02;9.20;;;13.00;99.90;;;;;;5099520;28;20550;-74
2022/10/29 09:14:39;;;;;;;12.30;8.80;;;13.00;99.90;;;;;;5114540;28;20027;-74
2022/10/29 09:17:49;;;;;;;14.50;9.52;;;13.00;99.90;;;;;;5114499;28;20035;-78
2022/10/29 09:20:42;;;;;;;14.98;8.93;;;13.10;99.90;;;;;;5051400;28;20043;-73
2022/10/29 09:23:16;;;;;;;13.15;8.63;;;13.10;99.90;;;;;;5114537;28;20364;-74
2022/10/29 09:25:50;;;;;;;14.30;9.50;;;13.10;99.90;;;;;;5114824;28;20050;-74
2022/10/29 09:28:43;;;;;;;14.15;9.98;;;13.10;99.90;;;;;;5114573;28;20031;-75
2022/10/29 09:31:23;;;;;;;14.55;8.65;;;13.10;99.90;;;;;;5114231;28;20426;-73
2022/10/29 09:33:52;;;;;;;13.23;9.10;;;13.10;99.90;;;;;;5114273;28;20054;-73
2022/10/29 09:36:22;;;;;;;13.15;9.65;;;13.10;99.90;;;;;;5113944;28;20027;-73
2022/10/29 09:38:57;;;;;;;12.73;9.43;;;13.10;99.90;;;;;;5114579;28;20035;-73
2022/10/29 09:41:27;;;;;;;13.55;9.90;;;13.10;99.90;;;;;;5113937;28;20031;-73
2022/10/29 09:44:03;;;;;;;13.98;8.93;;;13.10;99.90;;;;;;5114338;28;20034;-73
2022/10/29 09:46:37;;;;;;;14.40;10.30;;;13.10;99.90;;;;;;5113518;28;20065;-73
2022/10/29 09:49:27;;;;;;;13.30;9.45;;;13.10;99.90;;;;;;5113617;28;20055;-73
2022/10/29 09:52:19;;;;;;;14.77;9.63;;;13.10;99.90;;;;;;5113903;28;20023;-73
2022/10/29 09:54:47;;;;;;;13.95;10.02;;;13.10;99.90;;;;;;5114027;28;20024;-74
2022/10/29 09:57:18;;;;;;;13.52;9.75;;;13.10;99.90;;;;;;5113710;28;20020;-73
2022/10/29 09:59:50;;;;;;;14.02;9.65;;;13.20;99.90;;;;;;5114164;28;20081;-73
2022/10/29 10:02:36;;;;;;;13.55;9.80;;;13.20;99.90;;;;;;5113826;28;20062;-74
2022/10/29 10:05:12;;;;;;;14.90;9.73;;;13.20;99.90;;;;;;5114150;28;20024;-73
2022/10/29 10:07:38;;;;;;;16.15;10.68;;;13.20;99.90;;;;;;5096738;28;20024;-74
2022/10/29 10:10:07;;;;;;;14.98;10.77;;;13.30;99.90;;;;;;5113853;28;20042;-72
2022/10/29 10:12:35;;;;;;;18.65;12.10;;;13.30;99.90;;;;;;5112200;28;20492;-74
2022/10/29 10:15:27;;;;;;;15.55;10.65;;;13.30;99.90;;;;;;5114000;28;20556;-75
2022/10/29 10:17:56;;;;;;;15.90;10.38;;;13.30;99.90;;;;;;5113937;28;20376;-73
2022/10/29 10:20:38;;;;;;;15.90;10.65;;;13.30;99.90;;;;;;5113317;28;20527;-73
2022/10/29 10:23:22;;;;;;;14.43;10.10;;;13.40;99.90;;;;;;5113669;28;20057;-74
2022/10/29 10:25:49;;;;;;;16.95;10.43;;;13.40;99.90;;;;;;5113298;28;20038;-74
2022/10/29 10:28:16;;;;;;;14.55;10.40;;;13.40;99.90;;;;;;5113407;28;20038;-74
2022/10/29 10:30:43;;;;;;;15.93;11.05;;;13.40;99.90;;;;;;5113576;28;20414;-73
2022/10/29 10:33:24;;;;;;;15.30;10.48;;;13.40;99.90;;;;;;5112851;28;20044;-74
2022/10/29 10:35:53;;;;;;;18.63;11.60;;;13.40;99.90;;;;;;5113537;28;20028;-74
2022/10/29 10:38:20;;;;;;;14.57;10.90;;;13.40;99.90;;;;;;5113011;28;20035;-73
2022/10/29 10:40:59;;;;;;;16.65;10.68;;;13.40;99.90;;;;;;5113297;28;20072;-74
2022/10/29 10:43:25;;;;;;;20.75;10.60;;;13.40;99.90;;;;;;5112450;28;20533;-72
2022/10/29 10:45:58;;;;;;;15.30;10.73;;;13.40;99.90;;;;;;5113343;28;20028;-74
2022/10/29 10:48:26;;;;;;;16.83;10.82;;;13.50;99.90;;;;;;5112750;28;20027;-74
2022/10/29 10:51:14;;;;;;;16.55;11.43;;;13.50;99.90;;;;;;5113302;28;20107;-74
2022/10/29 10:53:40;;;;;;;18.48;10.70;;;13.50;99.90;;;;;;5113520;28;20024;-75
2022/10/29 10:56:15;;;;;;;16.58;12.15;;;13.50;99.90;;;;;;5113472;28;20080;-74
2022/10/29 10:58:54;;;;;;;19.30;11.10;;;13.60;99.90;;;;;;5113266;28;20023;-75
2022/10/29 11:01:36;;;;;;;14.88;11.82;;;13.60;99.90;;;;;;5113030;28;20024;-74
2022/10/29 11:04:16;;;;;;;16.85;11.48;;;13.60;99.90;;;;;;5112108;28;20472;-75
2022/10/29 11:06:47;;;;;;;19.60;11.98;;;13.60;99.90;;;;;;5113031;28;20404;-73
2022/10/29 11:09:28;;;;;;;15.38;11.38;;;13.60;99.90;;;;;;5113226;28;20039;-73
2022/10/29 11:12:04;;;;;;;15.55;11.52;;;13.60;99.90;;;;;;5113256;28;20038;-72
2022/10/29 11:14:47;;;;;;;18.30;12.48;;;13.70;99.90;;;;;;5112707;28;20036;-73
2022/10/29 11:17:31;;;;;;;20.58;12.18;;;13.70;99.90;;;;;;5112887;28;20109;-73
2022/10/29 11:20:02;;;;;;;17.85;11.80;;;13.70;99.90;;;;;;5113155;28;20027;-72
2022/10/29 11:22:42;;;;;;;16.30;11.65;;;13.70;99.90;;;;;;5112739;28;20039;-74
2022/10/29 11:25:18;;;;;;;20.38;11.75;;;13.70;99.90;;;;;;5113067;28;20031;-74
2022/10/29 11:28:22;;;;;;;18.88;10.93;;;13.70;99.90;;;;;;5113281;28;20055;-74
2022/10/29 11:30:55;;;;;;;15.32;11.23;;;13.70;99.90;;;;;;5104154;28;20522;-74
2022/10/29 11:33:24;;;;;;;19.30;13.15;;;13.80;99.90;;;;;;5112710;28;20055;-73
2022/10/29 11:36:14;;;;;;;19.63;13.48;;;13.80;99.90;;;;;;5111583;28;20033;-74
2022/10/29 11:38:54;;;;;;;22.60;16.05;;;13.80;99.90;;;;;;5101062;28;20039;-74
2022/10/29 11:41:47;;;;;;;29.65;19.83;;;13.70;99.90;;;;;;5112805;28;20067;-75
2022/10/29 11:44:16;;;;;;;28.17;18.20;;;13.80;99.90;;;;;;5112596;28;20023;-74
2022/10/29 11:47:04;;;;;;;35.42;23.85;;;13.80;99.90;;;;;;5112800;28;20020;-74
2022/10/29 11:49:46;;;;;;;29.65;20.15;;;13.90;99.90;;;;;;5111999;28;20398;-74
2022/10/29 11:52:14;;;;;;;34.78;23.50;;;13.90;99.90;;;;;;5112867;28;20051;-75
2022/10/29 11:54:47;;;;;;;41.00;27.38;;;13.90;99.90;;;;;;5114404;28;20032;-73
2022/10/29 11:57:25;;;;;;;33.97;24.17;;;13.90;99.90;;;;;;5115820;28;20027;-74
2022/10/29 12:00:09;;;;;;;37.67;24.77;;;13.90;99.90;;;;;;5116394;28;20023;-74
2022/10/29 12:02:44;;;;;;;41.45;27.77;;;13.90;99.90;;;;;;5115927;28;20027;-74
2022/10/29 12:05:28;;;;;;;40.88;28.92;;;13.90;99.90;;;;;;5116357;28;20024;-74
2022/10/29 12:08:24;;;;;;;40.75;27.85;;;13.90;99.90;;;;;;5116628;28;20032;-74
2022/10/29 12:10:57;;;;;;;35.67;24.85;;;13.90;99.90;;;;;;5115863;28;20460;-74
2022/10/29 12:14:09;;;;;;;29.35;21.40;;;13.90;99.90;;;;;;5114544;28;20028;-75
2022/10/29 12:17:05;;;;;;;29.67;20.70;;;13.90;99.90;;;;;;5115126;28;20044;-75
2022/10/29 12:19:53;;;;;;;29.48;21.25;;;13.90;99.90;;;;;;5115748;28;20027;-75
2022/10/29 12:22:37;;;;;;;32.15;21.27;;;14.00;99.90;;;;;;5116149;28;20024;-84
2022/10/29 12:25:23;;;;;;;27.75;19.00;;;13.90;99.90;;;;;;5115800;28;20035;-73
2022/10/29 12:28:03;;;;;;;26.65;18.77;;;14.00;99.90;;;;;;5115851;28;20173;-73
2022/10/29 12:30:36;;;;;;;25.10;17.77;;;14.00;99.90;;;;;;5114893;28;20030;-73
2022/10/29 12:33:16;;;;;;;22.65;16.75;;;14.00;99.90;;;;;;5115935;28;20048;-72
2022/10/29 12:35:52;;;;;;;25.98;16.98;;;13.90;99.90;;;;;;5115034;28;20387;-73
2022/10/29 12:38:26;;;;;;;22.95;16.70;;;14.00;99.90;;;;;;5115224;28;20039;-73
2022/10/29 12:41:09;;;;;;;22.42;15.18;;;13.90;99.90;;;;;;5115195;28;20106;-72
2022/10/29 12:43:37;;;;;;;24.63;16.20;;;14.00;99.90;;;;;;5113842;28;20450;-73
2022/10/29 12:46:02;;;;;;;25.85;16.58;;;13.90;99.90;;;;;;5115610;28;20032;-73